Time;durP1;ratioP1;P1;durP2;ratioP2;P2;SDS_P1;SDS_P2;PMS_P1;PMS_P2;Temp;Humidity;BMP_temperature;BMP_pressure;BME280_temperature;BME280_humidity;BME280_pressure;Samples;Min_cycle;Max_cycle;Signal;HPM_P1;HPM_P2
2022/01/20 00:02:01;;;;;;;;;;;3.50;99.90;;;;;;5073858;28;19916;-48
2022/01/20 00:04:39;;;;;;;;;;;3.50;99.90;;;;;;5070632;28;19931;-52
2022/01/20 00:23:41;;;;;;;;;;;3.50;99.90;;;;;;5068310;28;20290;-49
2022/01/20 00:28:53;;;;;;;;;;;3.50;99.90;;;;;;5064965;28;19948;-48
2022/01/20 00:34:09;;;;;;;;;;;3.40;99.90;;;;;;5080034;28;20367;-48
2022/01/20 00:39:02;;;;;;;;;;;3.50;99.90;;;;;;5091130;28;20235;-49
2022/01/20 00:41:28;;;;;;;;;;;3.50;99.90;;;;;;5070248;28;19924;-51
2022/01/20 00:43:54;;;;;;;;;;;3.50;99.90;;;;;;5069112;28;19975;-49
2022/01/20 00:46:20;;;;;;;;;;;3.50;99.90;;;;;;5072240;28;19923;-52
2022/01/20 00:48:45;;;;;;;;;;;3.50;99.90;;;;;;5071417;28;19943;-50
2022/01/20 00:51:11;;;;;;;;;;;3.60;99.90;;;;;;5072118;28;19931;-50
2022/01/20 00:53:43;;;;;;;;;;;3.60;99.90;;;;;;5071469;28;19927;-50
2022/01/20 00:56:12;;;;;;;;;;;3.60;99.90;;;;;;5072690;28;19920;-48
2022/01/20 00:58:38;;;;;;;;;;;3.60;99.90;;;;;;5068427;28;19932;-52
2022/01/20 01:01:04;;;;;;;;;;;3.70;99.90;;;;;;5073257;28;19959;-50
2022/01/20 01:03:29;;;;;;;;;;;3.80;99.90;;;;;;5068539;28;20291;-50
2022/01/20 01:06:13;;;;;;;;;;;3.80;99.90;;;;;;5068772;28;20607;-50
2022/01/20 01:08:40;;;;;;;;;;;3.60;99.90;;;;;;5072494;28;19921;-49
2022/01/20 01:11:06;;;;;;;;;;;3.50;99.90;;;;;;5072656;28;19915;-49
2022/01/20 01:13:32;;;;;;;;;;;3.30;99.90;;;;;;5071932;28;19920;-49
2022/01/20 01:15:58;;;;;;;;;;;3.20;99.90;;;;;;5072032;28;20057;-51
2022/01/20 01:21:15;;;;;;;;;;;2.90;99.90;;;;;;5069873;28;19923;-51
2022/01/20 01:23:43;;;;;;;;;;;2.90;99.90;;;;;;5070210;28;19920;-50
2022/01/20 01:26:15;;;;;;;;;;;2.80;99.90;;;;;;5071404;28;20262;-54
2022/01/20 01:28:41;;;;;;;;;;;2.70;99.90;;;;;;5071381;28;19960;-50
2022/01/20 01:31:29;;;;;;;;;;;2.60;99.90;;;;;;5063502;28;19920;-52
2022/01/20 01:33:59;;;;;;;;;;;2.50;99.90;;;;;;5069267;28;19992;-52
2022/01/20 01:36:28;;;;;;;;;;;2.50;99.90;;;;;;5069823;28;19986;-50
2022/01/20 01:38:54;;;;;;;;;;;2.50;99.90;;;;;;5077192;28;20024;-49
2022/01/20 01:41:29;;;;;;;;;;;2.50;99.90;;;;;;5076575;28;19985;-49
2022/01/20 01:43:55;;;;;;;;;;;2.50;99.90;;;;;;5078348;28;19923;-54
2022/01/20 01:46:21;;;;;;;;;;;2.60;99.90;;;;;;5069539;28;20545;-49
2022/01/20 01:48:47;;;;;;;;;;;2.60;99.90;;;;;;5074822;28;19934;-50
2022/01/20 01:51:13;;;;;;;;;;;2.70;99.90;;;;;;5068276;28;19924;-51
2022/01/20 01:53:40;;;;;;;;;;;2.80;99.90;;;;;;5064468;28;19917;-49
2022/01/20 01:56:06;;;;;;;;;;;2.90;99.90;;;;;;5069605;28;19920;-49
2022/01/20 01:58:32;;;;;;;;;;;3.20;99.90;;;;;;5063354;28;19925;-48
2022/01/20 02:00:58;;;;;;;;;;;3.30;99.90;;;;;;5077730;28;19916;-52
2022/01/20 02:03:24;;;;;;;;;;;3.40;99.90;;;;;;5070202;28;19945;-49
2022/01/20 02:09:10;;;;;;;;;;;3.30;99.90;;;;;;5055068;28;19983;-52
2022/01/20 02:19:54;;;;;;;;;;;3.40;99.90;;;;;;5064647;28;20007;-51
2022/01/20 02:22:20;;;;;;;;;;;3.20;99.90;;;;;;5069559;28;20358;-50
2022/01/20 02:24:45;;;;;;;;;;;3.10;99.90;;;;;;5053649;28;19928;-49
2022/01/20 02:27:11;;;;;;;;;;;3.00;99.90;;;;;;5068968;28;19916;-52
2022/01/20 02:29:37;;;;;;;;;;;2.90;99.90;;;;;;5068526;28;19980;-51
2022/01/20 02:32:03;;;;;;;;;;;2.90;99.90;;;;;;5067799;28;19965;-48
2022/01/20 02:34:30;;;;;;;;;;;3.00;99.90;;;;;;5062634;28;20438;-49
2022/01/20 02:36:58;;;;;;;;;;;3.00;99.90;;;;;;5058759;28;20006;-51
2022/01/20 02:44:57;;;;;;;;;;;3.00;99.90;;;;;;5041283;28;19920;-53
2022/01/20 02:47:27;;;;;;;;;;;3.20;99.90;;;;;;5031985;28;19917;-50
2022/01/20 02:49:53;;;;;;;;;;;3.40;99.90;;;;;;5067906;28;20397;-49
2022/01/20 02:52:20;;;;;;;;;;;3.60;99.90;;;;;;5047031;28;20310;-49
2022/01/20 02:54:45;;;;;;;;;;;3.70;99.90;;;;;;5065079;28;20021;-50
2022/01/20 02:57:11;;;;;;;;;;;3.80;99.90;;;;;;5048064;28;20381;-53
2022/01/20 02:59:38;;;;;;;;;;;3.80;99.90;;;;;;5044996;28;20042;-48
2022/01/20 03:02:05;;;;;;;;;;;3.60;99.90;;;;;;5047117;28;20310;-50
2022/01/20 03:04:31;;;;;;;;;;;3.50;99.90;;;;;;5066655;28;19921;-49
2022/01/20 03:06:57;;;;;;;;;;;3.30;99.90;;;;;;5066684;28;19924;-49
2022/01/20 03:09:23;;;;;;;;;;;3.10;99.90;;;;;;5047553;28;20073;-48
2022/01/20 03:11:49;;;;;;;;;;;3.00;99.90;;;;;;5032271;28;20394;-49
2022/01/20 03:14:17;;;;;;;;;;;3.00;99.90;;;;;;5044726;28;19943;-51
2022/01/20 03:16:44;;;;;;;;;;;2.90;99.90;;;;;;5055328;28;19924;-51
2022/01/20 03:19:10;;;;;;;;;;;2.90;99.90;;;;;;5062204;28;19920;-53
2022/01/20 03:21:36;;;;;;;;;;;2.90;99.90;;;;;;5048145;28;19920;-48
2022/01/20 03:24:02;;;;;;;;;;;2.90;99.90;;;;;;5060812;28;19970;-48
2022/01/20 03:26:27;;;;;;;;;;;3.10;99.90;;;;;;5071090;28;19923;-47
2022/01/20 03:28:53;;;;;;;;;;;3.20;99.90;;;;;;5053129;28;19928;-52
2022/01/20 03:31:19;;;;;;;;;;;3.30;99.90;;;;;;5052676;28;19920;-50
2022/01/20 03:33:45;;;;;;;;;;;3.30;99.90;;;;;;5049426;28;19921;-50
2022/01/20 03:36:10;;;;;;;;;;;3.40;99.90;;;;;;5065375;28;20017;-49
2022/01/20 03:38:36;;;;;;;;;;;3.40;99.90;;;;;;5078637;28;19936;-49
2022/01/20 03:41:02;;;;;;;;;;;3.50;99.90;;;;;;5055127;28;20328;-51
2022/01/20 03:43:27;;;;;;;;;;;3.50;99.90;;;;;;5033719;28;19939;-52
2022/01/20 03:45:56;;;;;;;;;;;3.60;99.90;;;;;;5069216;28;20290;-52
2022/01/20 03:48:25;;;;;;;;;;;3.60;99.90;;;;;;5054010;28;19932;-52
2022/01/20 03:51:00;;;;;;;;;;;3.40;99.90;;;;;;5053669;28;21503;-49
2022/01/20 03:53:26;;;;;;;;;;;3.40;99.90;;;;;;5054875;28;19935;-50
2022/01/20 03:55:52;;;;;;;;;;;3.30;99.90;;;;;;5039255;28;20042;-51
2022/01/20 03:58:18;;;;;;;;;;;3.20;99.90;;;;;;5086367;28;20096;-47
2022/01/20 04:00:44;;;;;;;;;;;3.20;99.90;;;;;;5058147;28;19924;-52
2022/01/20 04:03:11;;;;;;;;;;;3.20;99.90;;;;;;5069966;28;20346;-47
2022/01/20 04:05:43;;;;;;;;;;;3.20;99.90;;;;;;5082925;28;20301;-50
2022/01/20 04:08:08;;;;;;;;;;;3.20;99.90;;;;;;5038097;28;20464;-47
2022/01/20 04:10:34;;;;;;;;;;;3.10;99.90;;;;;;5070904;28;19928;-48
2022/01/20 04:13:00;;;;;;;;;;;3.10;99.90;;;;;;5068997;28;19924;-49
2022/01/20 04:15:36;;;;;;;;;;;3.20;99.90;;;;;;5036955;28;20435;-48
2022/01/20 04:18:02;;;;;;;;;;;3.20;99.90;;;;;;5070775;28;20278;-49
2022/01/20 04:20:28;;;;;;;;;;;3.20;99.90;;;;;;5084339;28;19983;-51
2022/01/20 04:22:53;;;;;;;;;;;3.10;99.90;;;;;;5067917;28;20322;-48
2022/01/20 04:25:19;;;;;;;;;;;3.00;99.90;;;;;;5068251;28;19920;-49
2022/01/20 04:27:45;;;;;;;;;;;3.10;99.90;;;;;;5070503;28;19920;-51
2022/01/20 04:30:11;;;;;;;;;;;3.20;99.90;;;;;;5090990;28;19981;-49
2022/01/20 04:32:36;;;;;;;;;;;3.40;99.90;;;;;;5069189;28;19920;-48
2022/01/20 04:35:02;;;;;;;;;;;3.50;99.90;;;;;;5083771;28;19930;-52
2022/01/20 04:37:28;;;;;;;;;;;3.70;99.90;;;;;;5072558;28;19978;-51
2022/01/20 04:39:56;;;;;;;;;;;3.60;99.90;;;;;;5076668;28;19942;-52
2022/01/20 04:42:24;;;;;;;;;;;3.60;99.90;;;;;;5068136;28;19920;-49
2022/01/20 04:44:58;;;;;;;;;;;3.40;99.90;;;;;;5074362;28;19923;-49
2022/01/20 04:58:05;;;;;;;;;;;2.90;99.90;;;;;;5067151;28;20359;-47
2022/01/20 05:00:31;;;;;;;;;;;2.90;99.90;;;;;;5069914;28;19939;-51
2022/01/20 05:02:57;;;;;;;;;;;2.90;99.90;;;;;;5070575;28;19920;-49
2022/01/20 05:05:23;;;;;;;;;;;2.90;99.90;;;;;;5070181;28;19920;-48
2022/01/20 05:07:49;;;;;;;;;;;2.90;99.90;;;;;;5072323;28;19919;-49
2022/01/20 05:10:15;;;;;;;;;;;2.80;99.90;;;;;;5070134;28;20326;-52
2022/01/20 05:15:19;;;;;;;;;;;2.60;99.90;;;;;;5067865;28;20282;-51
2022/01/20 05:17:45;;;;;;;;;;;2.60;99.90;;;;;;5066080;28;19939;-49
2022/01/20 05:20:11;;;;;;;;;;;2.50;99.90;;;;;;5075726;28;19916;-48
2022/01/20 05:22:37;;;;;;;;;;;2.40;99.90;;;;;;5064515;28;19966;-47
2022/01/20 05:25:03;;;;;;;;;;;2.20;99.90;;;;;;5073611;28;20366;-49
2022/01/20 05:27:29;;;;;;;;;;;2.10;99.90;;;;;;5072922;28;19916;-52
2022/01/20 05:29:55;;;;;;;;;;;2.00;99.90;;;;;;5088651;28;19920;-51
2022/01/20 05:32:21;;;;;;;;;;;2.00;99.90;;;;;;5072355;28;20362;-48
2022/01/20 05:34:47;;;;;;;;;;;2.00;99.90;;;;;;5070515;28;19920;-48
2022/01/20 05:37:13;;;;;;;;;;;2.10;99.90;;;;;;5070827;28;19964;-48
2022/01/20 05:39:39;;;;;;;;;;;2.20;99.90;;;;;;5080172;28;19920;-48
2022/01/20 05:42:05;;;;;;;;;;;2.50;99.90;;;;;;5072583;28;19930;-50
2022/01/20 05:44:31;;;;;;;;;;;2.50;99.90;;;;;;5088074;28;19977;-48
2022/01/20 05:46:56;;;;;;;;;;;2.50;99.90;;;;;;5089935;28;20285;-49
2022/01/20 05:49:22;;;;;;;;;;;2.50;99.90;;;;;;5091242;28;19924;-49
2022/01/20 05:51:49;;;;;;;;;;;2.50;99.90;;;;;;5087179;28;20334;-48
2022/01/20 05:54:15;;;;;;;;;;;2.40;99.90;;;;;;5091933;28;20019;-46
2022/01/20 05:56:43;;;;;;;;;;;2.40;99.90;;;;;;5104569;27;20652;-48
2022/01/20 05:59:08;;;;;;;;;;;2.40;99.90;;;;;;5085636;28;19969;-48
2022/01/20 06:01:37;;;;;;;;;;;2.40;99.90;;;;;;5090621;28;19924;-51
2022/01/20 06:04:03;;;;;;;;;;;2.60;99.90;;;;;;5072604;28;21058;-51
2022/01/20 06:06:29;;;;;;;;;;;2.50;99.90;;;;;;5087239;28;20255;-47
2022/01/20 06:08:54;;;;;;;;;;;3.50;99.90;;;;;;5069644;28;19939;-48
2022/01/20 06:11:20;;;;;;;;;;;2.70;99.90;;;;;;5071765;28;19923;-47
2022/01/20 06:13:46;;;;;;;;;;;2.70;99.90;;;;;;5070810;28;20753;-48
2022/01/20 06:16:12;;;;;;;;;;;2.90;99.90;;;;;;5087794;28;20006;-50
2022/01/20 06:18:37;;;;;;;;;;;3.00;99.90;;;;;;5069183;28;19969;-49
2022/01/20 06:21:03;;;;;;;;;;;3.00;99.90;;;;;;5053004;28;19916;-48
2022/01/20 06:23:29;;;;;;;;;;;3.20;99.90;;;;;;5086701;28;19959;-48
2022/01/20 06:25:56;;;;;;;;;;;3.30;99.90;;;;;;5090429;28;19923;-48
2022/01/20 06:28:22;;;;;;;;;;;3.20;99.90;;;;;;5053951;28;19928;-47
2022/01/20 06:30:48;;;;;;;;;;;3.30;99.90;;;;;;5054504;28;19923;-48
2022/01/20 06:33:14;;;;;;;;;;;3.30;99.90;;;;;;5088141;28;19926;-48
2022/01/20 06:35:40;;;;;;;;;;;3.10;99.90;;;;;;5088377;28;19924;-48
2022/01/20 06:38:06;;;;;;;;;;;3.00;99.90;;;;;;5040439;28;19927;-47
2022/01/20 06:40:32;;;;;;;;;;;2.80;99.90;;;;;;5044943;28;20390;-47
2022/01/20 06:42:58;;;;;;;;;;;1.60;99.90;;;;;;5045431;28;21182;-48
2022/01/20 06:45:24;;;;;;;;;;;2.60;99.90;;;;;;5047238;28;19967;-48
2022/01/20 06:47:50;;;;;;;;;;;2.50;99.90;;;;;;5047028;28;19916;-48
2022/01/20 06:50:16;;;;;;;;;;;2.40;99.90;;;;;;5030325;28;19921;-47
2022/01/20 06:52:41;;;;;;;;;;;2.30;99.90;;;;;;5048946;28;19924;-48
2022/01/20 06:55:10;;;;;;;;;;;2.30;99.90;;;;;;5060126;28;19935;-47
2022/01/20 06:57:37;;;;;;;;;;;2.30;99.90;;;;;;5031299;28;19974;-46
2022/01/20 07:00:07;;;;;;;;;;;2.40;99.90;;;;;;5045869;28;20051;-48
2022/01/20 07:02:33;;;;;;;;;;;2.40;99.90;;;;;;5080968;28;20351;-48
2022/01/20 07:04:58;;;;;;;;;;;2.60;99.90;;;;;;5063957;28;19916;-49
2022/01/20 07:07:24;;;;;;;;;;;2.60;99.90;;;;;;5064419;28;19917;-48
2022/01/20 07:09:50;;;;;;;;;;;2.70;99.90;;;;;;5060382;28;19920;-50
2022/01/20 07:12:16;;;;;;;;;;;2.80;99.90;;;;;;5046522;28;19916;-52
2022/01/20 07:14:41;;;;;;;;;;;2.70;99.90;;;;;;5030784;28;19920;-49
2022/01/20 07:17:07;;;;;;;;;;;3.00;99.90;;;;;;5042034;28;19978;-50
2022/01/20 07:19:33;;;;;;;;;;;2.70;99.90;;;;;;5038950;28;19967;-50
2022/01/20 07:21:59;;;;;;;;;;;2.70;99.90;;;;;;5044335;28;19925;-48
2022/01/20 07:24:27;;;;;;;;;;;2.60;99.90;;;;;;5064092;28;19931;-49
2022/01/20 07:26:53;;;;;;;;;;;2.60;99.90;;;;;;5027184;28;19974;-48
2022/01/20 07:29:19;;;;;;;;;;;2.50;99.90;;;;;;5044881;28;19928;-50
2022/01/20 07:31:45;;;;;;;;;;;2.50;99.90;;;;;;5045970;28;19939;-50
2022/01/20 07:34:12;;;;;;;;;;;2.40;99.90;;;;;;5066584;28;19924;-50
2022/01/20 07:36:39;;;;;;;;;;;2.40;99.90;;;;;;5043596;28;19932;-47
2022/01/20 07:39:05;;;;;;;;;;;2.20;99.90;;;;;;5084611;28;19924;-48
2022/01/20 07:41:31;;;;;;;;;;;2.20;99.90;;;;;;5071258;28;20388;-49
2022/01/20 07:43:57;;;;;;;;;;;2.30;99.90;;;;;;5086197;28;19951;-50
2022/01/20 07:46:23;;;;;;;;;;;2.30;99.90;;;;;;5079786;28;20328;-52
2022/01/20 07:48:49;;;;;;;;;;;2.20;99.90;;;;;;5047754;28;20002;-51
2022/01/20 07:51:15;;;;;;;;;;;1.70;99.90;;;;;;5066986;28;20350;-52
2022/01/20 07:53:41;;;;;;;;;;;1.60;99.90;;;;;;5064622;28;19916;-51
2022/01/20 07:56:07;;;;;;;;;;;1.70;99.90;;;;;;5084911;28;19924;-49
2022/01/20 07:58:33;;;;;;;;;;;1.90;99.90;;;;;;5073832;28;20012;-47
2022/01/20 08:00:59;;;;;;;;;;;2.00;99.90;;;;;;5080633;28;21457;-49
2022/01/20 08:03:25;;;;;;;;;;;2.00;99.90;;;;;;5080636;28;19924;-48
2022/01/20 08:05:51;;;;;;;;;;;2.10;99.90;;;;;;5072816;28;20427;-49
2022/01/20 08:08:17;;;;;;;;;;;2.10;99.90;;;;;;5053565;28;20390;-47
2022/01/20 08:10:43;;;;;;;;;;;2.10;99.90;;;;;;5076861;28;19939;-48
2022/01/20 08:13:08;;;;;;;;;;;2.00;99.90;;;;;;5089114;28;20022;-48
2022/01/20 08:15:34;;;;;;;;;;;1.90;99.90;;;;;;5062635;28;19924;-49
2022/01/20 08:18:00;;;;;;;;;;;1.90;99.90;;;;;;5106940;27;19924;-47
2022/01/20 08:20:26;;;;;;;;;;;2.00;99.90;;;;;;5109725;27;19923;-48
2022/01/20 08:22:52;;;;;;;;;;;2.10;99.90;;;;;;5083243;28;20028;-48
2022/01/20 08:25:18;;;;;;;;;;;2.10;99.90;;;;;;5080965;28;19927;-48
2022/01/20 08:27:45;;;;;;;;;;;2.20;99.90;;;;;;5070197;28;19924;-47
2022/01/20 08:30:12;;;;;;;;;;;2.30;99.90;;;;;;5071787;28;20370;-48
2022/01/20 08:32:38;;;;;;;;;;;2.40;99.90;;;;;;5081767;28;19978;-48
2022/01/20 08:35:06;;;;;;;;;;;2.40;99.90;;;;;;5084343;28;19928;-47
2022/01/20 08:37:32;;;;;;;;;;;2.50;99.90;;;;;;5052972;28;20379;-47
2022/01/20 08:39:58;;;;;;;;;;;2.60;99.90;;;;;;5068088;28;20442;-48
2022/01/20 08:42:24;;;;;;;;;;;2.60;99.90;;;;;;5032849;28;20019;-49
2022/01/20 08:44:50;;;;;;;;;;;2.70;99.90;;;;;;5037534;28;19916;-50
2022/01/20 08:47:17;;;;;;;;;;;2.90;99.90;;;;;;5049121;28;20278;-47
2022/01/20 08:49:47;;;;;;;;;;;2.90;99.90;;;;;;5067164;28;19920;-48
2022/01/20 08:52:13;;;;;;;;;;;3.10;99.90;;;;;;5034362;28;20408;-51
2022/01/20 08:54:39;;;;;;;;;;;3.00;99.90;;;;;;5069487;28;19955;-49
2022/01/20 08:57:05;;;;;;;;;;;3.00;99.90;;;;;;5048348;28;19916;-47
2022/01/20 08:59:31;;;;;;;;;;;2.80;99.90;;;;;;5048401;28;20317;-48
2022/01/20 09:01:57;;;;;;;;;;;2.80;99.90;;;;;;5050593;28;19945;-50
2022/01/20 09:04:22;;;;;;;;;;;2.60;99.90;;;;;;5051544;28;19924;-47
2022/01/20 09:06:48;;;;;;;;;;;2.50;99.90;;;;;;5067722;28;20331;-47
2022/01/20 09:09:16;;;;;;;;;;;2.50;99.90;;;;;;5068232;28;20506;-48
2022/01/20 09:11:51;;;;;;;;;;;2.50;99.90;;;;;;5050343;28;19970;-47
2022/01/20 09:17:02;;;;;;;;;;;2.60;99.90;;;;;;5050161;28;19959;-47
2022/01/20 09:19:28;;;;;;;;;;;2.90;99.90;;;;;;5066538;28;19986;-47
2022/01/20 09:21:54;;;;;;;;;;;3.00;99.90;;;;;;5064753;28;20668;-49
2022/01/20 09:24:19;;;;;;;;;;;3.00;99.90;;;;;;5050229;28;19989;-48
2022/01/20 09:26:45;;;;;;;;;;;2.90;99.90;;;;;;5050978;28;19923;-49
2022/01/20 09:29:11;;;;;;;;;;;2.80;99.90;;;;;;5033077;28;19931;-49
2022/01/20 09:31:38;;;;;;;;;;;2.80;99.90;;;;;;5065910;28;19920;-50
2022/01/20 09:34:05;;;;;;;;;;;2.70;99.90;;;;;;5068659;28;20290;-48
2022/01/20 09:36:30;;;;;;;;;;;2.80;99.90;;;;;;5066749;28;19916;-47
2022/01/20 09:38:56;;;;;;;;;;;2.90;99.90;;;;;;5065230;28;20062;-48
2022/01/20 09:41:22;;;;;;;;;;;3.00;99.90;;;;;;5064930;28;20032;-50
2022/01/20 09:43:49;;;;;;;;;;;3.20;99.90;;;;;;5035773;28;19916;-47
2022/01/20 09:46:14;;;;;;;;;;;3.40;99.90;;;;;;5050273;28;20204;-48
2022/01/20 09:48:40;;;;;;;;;;;3.50;99.90;;;;;;5065617;28;19939;-48
2022/01/20 09:51:06;;;;;;;;;;;3.70;99.90;;;;;;5046930;28;19916;-47
2022/01/20 09:53:32;;;;;;;;;;;4.00;99.90;;;;;;5067525;28;19924;-49
2022/01/20 09:55:58;;;;;;;;;;;4.00;99.90;;;;;;5048439;28;19923;-49
2022/01/20 09:58:24;;;;;;;;;;;3.90;99.90;;;;;;5029308;28;20589;-49
2022/01/20 10:00:51;;;;;;;;;;;3.80;99.90;;;;;;5065539;28;19916;-46
2022/01/20 10:03:18;;;;;;;;;;;3.70;99.90;;;;;;5049300;28;20025;-47
2022/01/20 10:05:48;;;;;;;;;;;3.70;99.90;;;;;;5049192;28;19986;-48
2022/01/20 10:08:21;;;;;;;;;;;3.80;99.90;;;;;;5036462;28;19920;-48
2022/01/20 10:10:47;;;;;;;;;;;3.90;99.90;;;;;;5048540;28;20285;-48
2022/01/20 10:13:13;;;;;;;;;;;4.00;99.90;;;;;;5069120;28;19917;-48
2022/01/20 10:15:41;;;;;;;;;;;4.00;99.90;;;;;;5048891;28;19916;-49
2022/01/20 10:18:08;;;;;;;;;;;4.00;99.90;;;;;;5059164;28;19963;-49
2022/01/20 10:20:35;;;;;;;;;;;4.10;99.90;;;;;;5048356;28;20039;-47
2022/01/20 10:23:00;;;;;;;;;;;4.20;99.90;;;;;;5066413;28;20366;-51
2022/01/20 10:25:26;;;;;;;;;;;4.30;99.90;;;;;;5067462;28;19917;-49
2022/01/20 10:27:55;;;;;;;;;;;4.00;99.90;;;;;;5067723;28;19924;-48
2022/01/20 10:30:24;;;;;;;;;;;3.60;99.90;;;;;;5065700;28;20339;-48
2022/01/20 10:32:51;;;;;;;;;;;3.30;99.90;;;;;;5061239;28;20392;-48
2022/01/20 10:35:18;;;;;;;;;;;3.20;99.90;;;;;;5062651;28;19939;-47
2022/01/20 10:37:57;;;;;;;;;;;3.30;99.90;;;;;;5067398;28;19993;-48
2022/01/20 10:40:23;;;;;;;;;;;3.50;99.90;;;;;;5049109;28;20001;-48
2022/01/20 10:42:48;;;;;;;;;;;3.80;99.90;;;;;;5067453;28;19923;-48
2022/01/20 10:45:19;;;;;;;;;;;3.50;99.90;;;;;;5064972;28;19924;-47
2022/01/20 10:47:47;;;;;;;;;;;3.30;99.90;;;;;;5084827;28;19920;-48
2022/01/20 10:50:18;;;;;;;;;;;3.20;99.90;;;;;;5067149;28;19958;-48
2022/01/20 10:52:44;;;;;;;;;;;3.10;99.90;;;;;;5066229;28;19924;-48
2022/01/20 10:55:23;;;;;;;;;;;3.10;99.90;;;;;;5062903;28;19987;-49
2022/01/20 10:57:50;;;;;;;;;;;3.10;99.90;;;;;;5063102;28;19924;-48
2022/01/20 11:00:19;;;;;;;;;;;3.10;99.90;;;;;;5081490;28;19917;-47
2022/01/20 11:02:49;;;;;;;;;;;3.10;99.90;;;;;;5063361;28;19921;-48
2022/01/20 11:05:16;;;;;;;;;;;3.10;99.90;;;;;;5048532;28;19921;-48
2022/01/20 11:07:43;;;;;;;;;;;3.30;99.90;;;;;;5065594;28;20034;-47
2022/01/20 11:10:10;;;;;;;;;;;3.60;99.90;;;;;;5067611;28;20041;-48
2022/01/20 11:12:37;;;;;;;;;;;3.70;99.90;;;;;;5066049;28;19917;-49
2022/01/20 11:15:06;;;;;;;;;;;3.90;99.90;;;;;;5064686;28;19924;-48
2022/01/20 11:17:33;;;;;;;;;;;4.10;99.90;;;;;;5063181;28;20017;-48
2022/01/20 11:20:04;;;;;;;;;;;4.10;99.90;;;;;;5081891;28;20334;-48
2022/01/20 11:22:30;;;;;;;;;;;4.00;99.90;;;;;;5067648;28;19916;-48
2022/01/20 11:24:56;;;;;;;;;;;4.00;99.90;;;;;;5067207;28;20370;-46
2022/01/20 11:27:33;;;;;;;;;;;4.10;99.90;;;;;;5065343;28;19921;-47
2022/01/20 11:30:01;;;;;;;;;;;4.20;99.90;;;;;;5064692;28;19920;-50
2022/01/20 11:32:29;;;;;;;;;;;4.30;99.90;;;;;;5066795;28;19946;-48
2022/01/20 11:34:55;;;;;;;;;;;4.30;99.90;;;;;;5066296;28;19920;-49
2022/01/20 11:37:23;;;;;;;;;;;4.50;99.90;;;;;;5067852;28;19920;-47
2022/01/20 11:39:53;;;;;;;;;;;4.60;99.90;;;;;;5068543;28;19927;-49
2022/01/20 11:42:20;;;;;;;;;;;4.30;99.90;;;;;;5067120;28;19974;-50
2022/01/20 11:44:45;;;;;;;;;;;4.50;99.90;;;;;;5099408;28;19924;-47
2022/01/20 11:47:11;;;;;;;;;;;4.40;99.90;;;;;;5070256;28;19920;-47
2022/01/20 11:49:38;;;;;;;;;;;4.30;99.90;;;;;;5069211;28;19976;-46
2022/01/20 11:52:05;;;;;;;;;;;4.00;99.90;;;;;;5077494;28;19924;-50
2022/01/20 11:54:32;;;;;;;;;;;4.00;99.90;;;;;;5076544;28;19927;-47
2022/01/20 11:57:07;;;;;;;;;;;3.90;99.90;;;;;;5073677;28;19994;-47
2022/01/20 11:59:37;;;;;;;;;;;3.70;99.90;;;;;;5074512;28;19917;-46
2022/01/20 12:02:03;;;;;;;;;;;3.60;99.90;;;;;;5074254;28;19920;-47
2022/01/20 12:04:32;;;;;;;;;;;3.50;99.90;;;;;;5070484;28;20285;-47
2022/01/20 12:06:58;;;;;;;;;;;3.50;99.90;;;;;;5069470;28;20029;-48
2022/01/20 12:09:28;;;;;;;;;;;3.30;99.90;;;;;;5068133;28;19920;-48
2022/01/20 12:11:54;;;;;;;;;;;3.20;99.90;;;;;;5067640;28;20238;-52
2022/01/20 12:14:46;;;;;;;;;;;2.60;99.90;;;;;;5073914;28;19916;-48
2022/01/20 12:17:16;;;;;;;;;;;3.30;99.90;;;;;;5078118;28;19947;-47
2022/01/20 12:19:45;;;;;;;;;;;3.40;99.90;;;;;;5069062;28;20094;-48
2022/01/20 12:22:11;;;;;;;;;;;3.60;99.90;;;;;;5099619;27;20281;-48
2022/01/20 12:24:37;;;;;;;;;;;3.70;99.90;;;;;;5070985;28;19924;-48
2022/01/20 12:27:19;;;;;;;;;;;4.00;99.90;;;;;;5053269;28;20975;-51
2022/01/20 12:29:45;;;;;;;;;;;4.20;99.90;;;;;;5064159;28;19928;-49
2022/01/20 12:32:15;;;;;;;;;;;4.40;99.90;;;;;;5051588;28;19932;-48
2022/01/20 12:34:40;;;;;;;;;;;4.40;99.90;;;;;;5066187;28;19998;-48
2022/01/20 12:37:07;;;;;;;;;;;4.40;99.90;;;;;;5065740;28;20003;-48
2022/01/20 12:39:34;;;;;;;;;;;4.40;99.90;;;;;;5068114;28;19970;-49
2022/01/20 12:42:01;;;;;;;;;;;4.40;99.90;;;;;;5066448;28;19917;-50
2022/01/20 12:44:39;;;;;;;;;;;4.40;99.90;;;;;;5050526;28;20022;-48
2022/01/20 12:47:05;;;;;;;;;;;4.40;99.90;;;;;;5067598;28;20364;-48
2022/01/20 12:49:31;;;;;;;;;;;4.40;99.90;;;;;;5050268;28;19920;-49
2022/01/20 12:51:58;;;;;;;;;;;4.40;99.90;;;;;;5051120;28;20520;-48
2022/01/20 12:54:29;;;;;;;;;;;4.50;99.90;;;;;;5066966;28;19982;-49
2022/01/20 12:56:55;;;;;;;;;;;4.50;99.90;;;;;;5065341;28;20445;-49
2022/01/20 12:59:31;;;;;;;;;;;4.50;99.90;;;;;;5066745;28;19920;-48
2022/01/20 13:02:01;;;;;;;;;;;4.50;99.90;;;;;;5064029;28;19931;-48
2022/01/20 13:04:29;;;;;;;;;;;4.70;99.90;;;;;;5067843;28;19991;-47
2022/01/20 13:06:58;;;;;;;;;;;4.80;99.90;;;;;;5047877;28;19939;-48
2022/01/20 13:09:35;;;;;;;;;;;4.70;99.90;;;;;;5062702;28;19928;-47
2022/01/20 13:12:02;;;;;;;;;;;4.30;99.90;;;;;;5067397;28;19969;-48
2022/01/20 13:14:39;;;;;;;;;;;4.00;99.90;;;;;;5048590;28;20007;-48
2022/01/20 13:17:06;;;;;;;;;;;3.80;99.90;;;;;;5050051;28;19927;-49
2022/01/20 13:19:44;;;;;;;;;;;3.60;99.90;;;;;;5048534;28;19973;-49
2022/01/20 13:22:32;;;;;;;;;;;3.50;99.90;;;;;;5049111;28;19922;-49
2022/01/20 13:25:12;;;;;;;;;;;3.40;99.90;;;;;;5066661;28;19916;-47
2022/01/20 13:27:49;;;;;;;;;;;3.40;99.90;;;;;;5083011;28;19924;-48
2022/01/20 13:30:23;;;;;;;;;;;3.50;99.90;;;;;;5079396;28;19924;-49
2022/01/20 13:32:49;;;;;;;;;;;3.70;99.90;;;;;;5067825;28;19924;-49
2022/01/20 13:35:15;;;;;;;;;;;3.80;99.90;;;;;;5046901;28;19916;-48
2022/01/20 13:37:41;;;;;;;;;;;3.80;99.90;;;;;;5048112;28;19994;-47
2022/01/20 13:40:08;;;;;;;;;;;3.70;99.90;;;;;;5064576;28;20030;-47
2022/01/20 13:45:00;;;;;;;;;;;3.80;99.90;;;;;;5032830;28;19924;-48
2022/01/20 13:45:38;;;;;;;;;;;3.70;99.90;;;;;;5050267;28;19990;-49
2022/01/20 13:48:04;;;;;;;;;;;3.60;99.90;;;;;;5068946;28;20414;-47
2022/01/20 13:50:37;;;;;;;;;;;3.50;99.90;;;;;;5066941;28;19920;-48
2022/01/20 13:53:12;;;;;;;;;;;3.70;99.90;;;;;;5066118;28;19923;-46
2022/01/20 13:55:39;;;;;;;;;;;3.80;99.90;;;;;;5067445;28;19959;-46
2022/01/20 13:58:08;;;;;;;;;;;3.90;99.90;;;;;;5066821;28;20032;-47
2022/01/20 14:00:34;;;;;;;;;;;4.00;99.90;;;;;;5031912;28;20414;-46
2022/01/20 14:03:01;;;;;;;;;;;4.00;99.90;;;;;;5046819;28;19930;-47
2022/01/20 14:05:27;;;;;;;;;;;4.00;99.90;;;;;;5033678;28;19920;-49
2022/01/20 14:07:53;;;;;;;;;;;4.00;99.90;;;;;;5031388;28;19932;-47
2022/01/20 14:10:19;;;;;;;;;;;4.20;99.90;;;;;;5046854;28;19928;-48
2022/01/20 14:12:46;;;;;;;;;;;4.10;99.90;;;;;;5046437;28;20003;-49
2022/01/20 14:15:12;;;;;;;;;;;3.70;99.90;;;;;;5061257;28;19931;-48
2022/01/20 14:17:39;;;;;;;;;;;3.30;99.90;;;;;;5065492;28;19927;-50
2022/01/20 14:20:08;;;;;;;;;;;3.10;99.90;;;;;;5063504;28;19930;-49
2022/01/20 14:22:34;;;;;;;;;;;2.90;99.90;;;;;;5066975;28;19916;-49
2022/01/20 14:24:59;;;;;;;;;;;2.80;99.90;;;;;;5067295;28;20389;-47
2022/01/20 14:27:25;;;;;;;;;;;2.70;99.90;;;;;;5067200;28;19999;-48
2022/01/20 14:29:51;;;;;;;;;;;2.70;99.90;;;;;;5047244;28;19978;-49
2022/01/20 14:32:17;;;;;;;;;;;2.90;99.90;;;;;;5064550;28;19924;-47
2022/01/20 14:34:43;;;;;;;;;;;3.20;99.90;;;;;;5047313;28;19920;-47
2022/01/20 14:37:09;;;;;;;;;;;3.30;99.90;;;;;;5069977;28;19920;-45
2022/01/20 14:39:36;;;;;;;;;;;3.40;99.90;;;;;;5062949;28;19977;-49
2022/01/20 14:42:05;;;;;;;;;;;3.40;99.90;;;;;;5050451;28;20008;-49
2022/01/20 14:44:32;;;;;;;;;;;3.40;99.90;;;;;;5050644;28;19934;-47
2022/01/20 14:46:57;;;;;;;;;;;3.40;99.90;;;;;;5086658;28;19920;-48
2022/01/20 14:49:23;;;;;;;;;;;3.40;99.90;;;;;;5068219;28;19931;-46
2022/01/20 14:51:49;;;;;;;;;;;3.40;99.90;;;;;;5085663;28;19997;-51
2022/01/20 14:54:15;;;;;;;;;;;3.60;99.90;;;;;;5086585;28;19924;-47
2022/01/20 14:56:42;;;;;;;;;;;3.70;99.90;;;;;;5067893;28;20281;-48
2022/01/20 14:59:09;;;;;;;;;;;3.70;99.90;;;;;;5087239;28;19920;-48
2022/01/20 15:01:34;;;;;;;;;;;3.70;99.90;;;;;;5067315;28;20012;-48
2022/01/20 15:04:00;;;;;;;;;;;3.60;99.90;;;;;;5084590;28;19960;-48
2022/01/20 15:06:26;;;;;;;;;;;3.60;99.90;;;;;;5067411;28;19923;-48
2022/01/20 15:08:52;;;;;;;;;;;3.60;99.90;;;;;;5087603;28;19923;-48
2022/01/20 15:11:18;;;;;;;;;;;3.30;99.90;;;;;;5082466;28;19931;-46
2022/01/20 15:13:43;;;;;;;;;;;3.30;99.90;;;;;;5082419;28;19924;-47
2022/01/20 15:16:09;;;;;;;;;;;3.30;99.90;;;;;;5083667;28;19930;-47
2022/01/20 15:18:35;;;;;;;;;;;3.40;99.90;;;;;;5052994;28;20551;-47
2022/01/20 15:21:00;;;;;;;;;;;3.50;99.90;;;;;;5071502;28;19920;-49
2022/01/20 15:23:27;;;;;;;;;;;3.50;99.90;;;;;;5088997;28;19920;-46
2022/01/20 15:25:52;;;;;;;;;;;3.80;99.90;;;;;;5071603;28;20443;-51
2022/01/20 15:28:18;;;;;;;;;;;3.60;99.90;;;;;;5072318;28;19920;-47
2022/01/20 15:30:44;;;;;;;;;;;3.60;99.90;;;;;;5070691;28;19924;-47
2022/01/20 15:33:10;;;;;;;;;;;2.90;99.90;;;;;;5101301;28;19943;-47